logo
App data

Labyrinth Simulator

Create your own levels, publish them or download levels from community. Play with your friends or play it alone. Shape the future of Labyrinth Simulator.
Store | Hub | SteamDB | Site
Developer: Phoenix Game and Publisher Studio Publisher: Phoenix Game and Publisher Studio
Genre: Indie, Simulation, Early Access
Languages: English, Turkish
Tags: Early Access (25), Simulation (24), Indie (23), Illuminati (9), Memes (8)
Category: Single-player, Multi-player, Co-op, Steam Trading Cards, Includes level editor
Release date: Sep 21, 2015
Price: $4.99
Old userscore: 55% Owners: 0 .. 20,000
Followers: 175
YouTube stats: 2,087 views and 1 comments for top 50 videos uploaded last week, 0 new videos uploaded yesterday.
Playtime total: 00:10 (average) 00:10 (median)

Steam Spy is still in beta, so expect major bugs.

Owners data:

Access restricted.

This feature is only available to users with special access rights. Sorry.

If you want to proceed, you need to register or log in first and then back Steam Spy on Patreon. Look for Indie or Pro pledge.

Don't forget to use the same email as on Steam Spy!

If you've recently backed Steam Spy on Patreon, please note, that it might take around 15 minutes for your access rights to sync. In most cases you'll need to re-login on Steam Spy too.

Audience in 2 weeks:

Access restricted.

This feature is only available to users with special access rights. Sorry.

If you want to proceed, you need to register or log in first and then back Steam Spy on Patreon. Look for Indie or Pro pledge.

Don't forget to use the same email as on Steam Spy!

If you've recently backed Steam Spy on Patreon, please note, that it might take around 15 minutes for your access rights to sync. In most cases you'll need to re-login on Steam Spy too.

Peak daily concurrent players:

CCU data courtesy of SteamDB. Used with permission.

Hourly concurrent players:

Followers over time

Access restricted.

This feature is only available to users with special access rights. Sorry.

If you want to proceed, you need to register or log in first and then back Steam Spy on Patreon. Look for Indie or Pro pledge.

Don't forget to use the same email as on Steam Spy!

If you've recently backed Steam Spy on Patreon, please note, that it might take around 15 minutes for your access rights to sync. In most cases you'll need to re-login on Steam Spy too.

Views for top 50 videos on YouTube for this game:

Games similar to this one:

# Game Release date
Price
Score rank
(Userscore / Metascore)
Owners
Players
Playtime (Median)
1 Recursion Deluxe Feb 12, 2016 $4.99N/A (N/A)0 .. 20,0000%00:00 (00:00)
2 Reptilian Rebellion Aug 7, 2016 $2.99N/A (N/A)50,000 .. 100,0000%00:00 (00:00)
3 One Last Chance Apr 7, 2016 $1.99N/A (N/A)20,000 .. 50,0000%00:00 (00:00)
4 Love in the Glen Jun 8, 2016 $1.79N/A (N/A)20,000 .. 50,0000%00:00 (00:00)
5 Forgotten, Not Lost - A Kinetic Novel Apr 2, 2016 $1.99N/A (N/A)50,000 .. 100,0000%00:00 (00:00)
6 Burst Mar 14, 2016 N/AN/A (N/A)20,000 .. 50,0000%00:00 (00:00)
7 Hustle Cat Mar 16, 2016 $1.99N/A (N/A)50,000 .. 100,0000%00:00 (00:00)
8 Mind Games Mar 4, 2016 $2.99N/A (N/A)20,000 .. 50,0000%00:00 (00:00)
9 RePete Mar 9, 2016 $1.99N/A (N/A)0 .. 20,0000%00:00 (00:00)
10 Sophie's Curse Mar 16, 2016 $2.49N/A (N/A)50,000 .. 100,0000%00:00 (00:00)
11 Broken Dreams Feb 19, 2016 $0.99N/A (N/A)500,000 .. 1,000,0000%00:00 (00:00)
12 Hyposphere May 5, 2016 $0.59N/A (N/A)200,000 .. 500,0000%00:00 (00:00)
13 Air Missions: HIND Jun 14, 2017 $8.49N/A (N/A)20,000 .. 50,0000%00:00 (00:00)
14 SquareCells Dec 7, 2015 $0.89N/A (N/A)50,000 .. 100,0000%00:00 (00:00)
15 Cyber Team Manager Jan 8, 2016 $4.99N/A (N/A)0 .. 20,0000%00:00 (00:00)
16 Herding Dog Jan 15, 2016 $0.99N/A (N/A)0 .. 20,0000%00:00 (00:00)
17 The Last NightMary - A Lenda do Cabeça de Cuia Nov 2, 2015 $1.09N/A (N/A)50,000 .. 100,0000%00:00 (00:00)
18 Star Sky Oct 23, 2015 $0.79N/A (N/A)0 .. 20,0000%00:00 (00:00)
19 Lift It Jan 20, 2017 $0.54N/A (N/A)100,000 .. 200,0000%00:00 (00:00)
20 Anode Oct 5, 2015 $3.99N/A (N/A)20,000 .. 50,0000%00:00 (00:00)
21 12 Labours of Hercules IV: Mother Nature (Platinum Edition) Dec 25, 2015 $1.49N/A (N/A)20,000 .. 50,0000%00:00 (00:00)
22 Backgammon Blitz Nov 12, 2015 $3.99N/A (N/A)20,000 .. 50,0000%00:00 (00:00)
23 Won't You Be My Laser? Sep 2, 2016 $0.51N/A (N/A)50,000 .. 100,00050%01:24 (00:42)
24 Dungeon Painter Studio Feb 26, 2017 $14.99N/A (N/A)100,000 .. 200,0000%00:00 (00:00)
25 Ninja Stealth 2 Jan 30, 2017 $0.49N/A (N/A)200,000 .. 500,00012.5%00:52 (00:17)
26 Griptape Backbone May 5, 2017 FreeN/A (N/A)0 .. 20,0000%00:00 (00:00)
27 iREC Jan 16, 2017 $0.49N/A (N/A)200,000 .. 500,0000%00:00 (00:00)
28 Neon Prism Nov 18, 2016 $1.09N/A (N/A)50,000 .. 100,0004.17%04:32 (01:30)
29 The Survey Oct 27, 2016 $0.99N/A (N/A)50,000 .. 100,0000%00:00 (00:00)
30 GO AWAY, THERE'S KUMIS OVER THERE! Oct 28, 2016 $0.99N/A (N/A)50,000 .. 100,0000%00:00 (00:00)
31 Kombine Oct 14, 2016 $0.51N/A (N/A)20,000 .. 50,00011.11%01:34 (00:31)
32 Turbo Pug 3D Sep 20, 2016 $0.99N/A (N/A)500,000 .. 1,000,0003.23%00:34 (00:11)
33 Football Blitz Jan 4, 2017 N/AN/A (N/A)0 .. 20,0000%00:00 (00:00)
34 Tennis in the Face Nov 18, 2015 $1.19N/A (N/A)0 .. 20,0000%00:00 (00:00)
35 Optika Aug 26, 2016 $4.99N/A (N/A)0 .. 20,0000%00:00 (00:00)
36 Clock Simulator Jul 20, 2016 N/AN/A (N/A)20,000 .. 50,0000%00:00 (00:00)
37 ConflictCraft Dec 8, 2016 $0.49N/A (N/A)100,000 .. 200,0006.67%01:49 (00:36)
38 Beeftacular Aug 26, 2016 $0.89N/A (N/A)20,000 .. 50,0000%00:00 (00:00)
39 12 Labours of Hercules V: Kids of Hellas (Platinum Edition) Jun 17, 2016 $1.49N/A (N/A)20,000 .. 50,0000%00:00 (00:00)
40 Hide and Secret Treasure of the Ages Jun 17, 2016 $0.84N/A (N/A)20,000 .. 50,0000%00:00 (00:00)
41 Frog Climbers Oct 6, 2016 $1.39N/A (N/A)20,000 .. 50,0000%00:00 (00:00)
42 Magma Tsunami Jun 1, 2016 $0.99N/A (N/A)200,000 .. 500,0000%00:00 (00:00)
43 hackmud Sep 22, 2016 $19.99N/A (N/A)20,000 .. 50,0000%00:00 (00:00)
44 King's Guard TD Jun 8, 2016 $2.39N/A (N/A)200,000 .. 500,0000%00:00 (00:00)
45 European Ship Simulator Nov 4, 2016 $9.99N/A (N/A)100,000 .. 200,0000%00:00 (00:00)
46 Pixel Puzzles 2: Birds Feb 20, 2015 $0.49N/A (N/A)200,000 .. 500,0006.25%00:58 (00:19)
47 12 Labours of Hercules Mar 23, 2015 $1.49N/A (N/A)100,000 .. 200,0000%00:00 (00:00)
48 Marble Duel: Sphere-Matching Tactical Fantasy Nov 12, 2015 $2.24N/A (N/A)50,000 .. 100,0000%00:00 (00:00)
49 Steam and Metal Feb 9, 2015 $0.49N/A (N/A)50,000 .. 100,00033.33%00:45 (00:22)
50 1931: Scheherazade at the Library of Pergamum Mar 26, 2015 $0.49N/A (N/A)50,000 .. 100,00033.33%01:38 (00:49)
51 The Jackbox Party Pack Nov 26, 2014 $12.49N/A (N/A)200,000 .. 500,0000%00:00 (00:00)
52 Sinister City Oct 18, 2014 $0.69N/A (N/A)100,000 .. 200,0000%00:00 (00:00)
53 A Good Snowman Is Hard To Build Feb 25, 2015 $2.49N/A (N/A)50,000 .. 100,0000%00:00 (00:00)
54 Bloop Reloaded Feb 6, 2015 N/AN/A (N/A)100,000 .. 200,0000%00:00 (00:00)
55 GamersGoMakers Aug 8, 2014 $8.99N/A (N/A)20,000 .. 50,0000%00:00 (00:00)
56 Stay Alight Mar 2, 2015 $3.99N/A (N/A)50,000 .. 100,0000%00:00 (00:00)
57 On Rusty Trails Jun 13, 2016 $1.94N/A (N/A/77%)20,000 .. 50,0000%00:00 (00:00)
58 Tribloos 2 Jan 30, 2014 $4.99N/A (N/A)100,000 .. 200,0000%00:00 (00:00)
59 Paranormal State: Poison Spring Nov 26, 2013 N/AN/A (N/A)50,000 .. 100,0000%00:00 (00:00)
60 Girls Like Robots Feb 14, 2014 $1.74N/A (N/A)100,000 .. 200,0000%00:00 (00:00)
61 Dead Man's Draw Feb 6, 2014 $3.49N/A (N/A)50,000 .. 100,0000%00:00 (00:00)
62 Particulars Nov 19, 2014 FreeN/A (N/A/74%)0 .. 20,0000%00:00 (00:00)
63 Oozi: Earth Adventure Dec 5, 2013 $0.99N/A (N/A/66%)20,000 .. 50,0000%00:00 (00:00)
64 Luxor Evolved Mar 1, 2012 $3.39N/A (N/A)20,000 .. 50,0000%00:00 (00:00)
65 Governor of Poker 2 - Premium Edition Oct 11, 2010 $7.99N/A (N/A)20,000 .. 50,0000%00:00 (00:00)
66 Axel & Pixel Oct 6, 2010 $1.24N/A (N/A)20,000 .. 50,0000%00:00 (00:00)
67 Star Chronicles: Delta Quadrant Jul 7, 2015 $0.99N/A (N/A)200,000 .. 500,0000%00:00 (00:00)
68 Dance Magic Feb 15, 2016 $2.49N/A (N/A)0 .. 20,0000%00:00 (00:00)
69 The Deletion Jul 30, 2015 $1.79N/A (N/A)20,000 .. 50,0000%00:00 (00:00)
70 Army of Pixels Oct 29, 2015 $4.99N/A (N/A)0 .. 20,0000%00:00 (00:00)
71 Collisions Jul 28, 2015 $4.99N/A (N/A)20,000 .. 50,0000%00:00 (00:00)
72 Robot vs Birds Zombies Jul 23, 2015 $0.99N/A (N/A)500,000 .. 1,000,0000%00:00 (00:00)
73 In Between Aug 21, 2015 $1.19N/A (N/A/68%)50,000 .. 100,0000%00:00 (00:00)
74 Alpha Runner Sep 2, 2015 $0.99N/A (N/A)100,000 .. 200,0000%00:00 (00:00)
75 Psycho Starship Rampage Sep 28, 2015 $2.49N/A (N/A)0 .. 20,0000%00:00 (00:00)
76 Wanda - A Beautiful Apocalypse Jun 3, 2016 $1.99N/A (N/A)100,000 .. 200,0000%00:00 (00:00)
77 Job the Leprechaun Jul 31, 2015 $2.99N/A (N/A)50,000 .. 100,0000%00:00 (00:00)
78 Thrillville: Off the Rails Jul 8, 2009 $3.49N/A (N/A/70%)20,000 .. 50,0000%00:00 (00:00)
79 Koala Kids Jun 22, 2015 $0.49N/A (N/A)100,000 .. 200,00012.5%00:36 (00:12)
80 Space Drifters 2D Mar 28, 2016 $0.99N/A (N/A)20,000 .. 50,0000%00:00 (00:00)
81 Power of Love Jul 21, 2015 $0.5N/A (N/A)20,000 .. 50,0000%00:00 (00:00)
82 Egg Returns Home May 5, 2015 N/AN/A (N/A)100,000 .. 200,0000%00:00 (00:00)
83 Alter World May 29, 2015 $0.99N/A (N/A)200,000 .. 500,0000%00:00 (00:00)
84 Pester Aug 21, 2015 $0.54N/A (N/A)100,000 .. 200,0000%00:00 (00:00)
85 Chip's Challenge 2 May 28, 2015 $4.99N/A (N/A)20,000 .. 50,0000%00:00 (00:00)
86 Racecraft Mar 4, 2016 FreeN/A (N/A)20,000 .. 50,0000%00:00 (00:00)
87 Streets of Chaos Jan 23, 2015 N/AN/A (N/A)100,000 .. 200,0000%00:00 (00:00)
88 Astro Emporia Feb 2, 2015 $0.51N/A (N/A)50,000 .. 100,00050%00:38 (00:38)

Tags over time:

Access restricted.

This feature is only available to users with special access rights. Sorry.

If you want to proceed, you need to register or log in first and then back Steam Spy on Patreon. Look for Indie or Pro pledge.

Don't forget to use the same email as on Steam Spy!

If you've recently backed Steam Spy on Patreon, please note, that it might take around 15 minutes for your access rights to sync. In most cases you'll need to re-login on Steam Spy too.

Owners of this game also own:

Access restricted.

This feature is only available to users with special access rights. Sorry.

If you want to proceed, you need to register or log in first and then back Steam Spy on Patreon. Look for Indie or Pro pledge.

Don't forget to use the same email as on Steam Spy!

If you've recently backed Steam Spy on Patreon, please note, that it might take around 15 minutes for your access rights to sync. In most cases you'll need to re-login on Steam Spy too.

Playtime distribution:

Access restricted.

This feature is only available to users with special access rights. Sorry.

If you want to proceed, you need to register or log in first and then back Steam Spy on Patreon. Look for Indie or Pro pledge.

Don't forget to use the same email as on Steam Spy!

If you've recently backed Steam Spy on Patreon, please note, that it might take around 15 minutes for your access rights to sync. In most cases you'll need to re-login on Steam Spy too.

Playtime (2 weeks):

Access restricted.

This feature is only available to users with special access rights. Sorry.

If you want to proceed, you need to register or log in first and then back Steam Spy on Patreon. Look for Indie or Pro pledge.

Don't forget to use the same email as on Steam Spy!

If you've recently backed Steam Spy on Patreon, please note, that it might take around 15 minutes for your access rights to sync. In most cases you'll need to re-login on Steam Spy too.

User reviews:

Login required.

Please register or log in to see this information.